Time;durP1;ratioP1;P1;durP2;ratioP2;P2;SDS_P1;SDS_P2;PMS_P1;PMS_P2;Temp;Humidity;BMP_temperature;BMP_pressure;BME280_temperature;BME280_humidity;BME280_pressure;Samples;Min_cycle;Max_cycle;Signal;HPM_P1;HPM_P2
2022/10/17 00:00:56;;;;;;;7.40;2.50;;;11.10;99.90;;;;;;4978821;28;20300;-93
2022/10/17 00:03:23;;;;;;;6.53;2.30;;;11.10;99.90;;;;;;4978729;28;20223;-93
2022/10/17 00:05:51;;;;;;;3.87;2.00;;;11.10;99.90;;;;;;4983715;28;20258;-93
2022/10/17 00:08:19;;;;;;;6.93;2.73;;;11.10;99.90;;;;;;4987063;28;20220;-93
2022/10/17 00:10:56;;;;;;;4.10;1.93;;;11.10;99.90;;;;;;4994082;28;20335;-93
2022/10/17 00:13:26;;;;;;;6.00;2.20;;;11.10;99.90;;;;;;4982288;28;20261;-92
2022/10/17 00:15:55;;;;;;;7.03;2.07;;;11.10;99.90;;;;;;4989612;28;20317;-94
2022/10/17 00:18:22;;;;;;;8.33;2.10;;;11.20;99.90;;;;;;4976160;28;20425;-93
2022/10/17 00:20:56;;;;;;;4.30;1.70;;;11.10;99.90;;;;;;4994460;28;20232;-93
2022/10/17 00:23:26;;;;;;;3.60;2.00;;;11.20;99.90;;;;;;4997840;28;20226;-93
2022/10/17 00:26:01;;;;;;;5.83;1.90;;;11.20;99.90;;;;;;4993416;28;20227;-93
2022/10/17 00:28:32;;;;;;;4.57;2.00;;;11.20;99.90;;;;;;4990902;28;20290;-94
2022/10/17 00:31:00;;;;;;;4.87;1.97;;;11.20;99.90;;;;;;4997940;28;20348;-95
2022/10/17 00:33:33;;;;;;;7.37;2.03;;;11.20;99.90;;;;;;4989570;28;20317;-93
2022/10/17 00:36:07;;;;;;;3.97;2.20;;;11.30;99.90;;;;;;4987368;28;20252;-93
2022/10/17 00:38:35;;;;;;;6.70;2.60;;;11.30;99.90;;;;;;4993025;28;20233;-92
2022/10/17 00:41:03;;;;;;;7.60;2.30;;;11.30;99.90;;;;;;4988917;28;20765;-93
2022/10/17 00:43:47;;;;;;;5.23;2.13;;;11.30;99.90;;;;;;4963959;28;20782;-92
2022/10/17 00:46:14;;;;;;;6.80;1.77;;;11.30;99.90;;;;;;4999480;28;20218;-93
2022/10/17 00:48:42;;;;;;;4.87;2.10;;;11.30;99.90;;;;;;4989386;28;20245;-92
2022/10/17 00:51:10;;;;;;;5.53;2.17;;;11.30;99.90;;;;;;5004512;28;20226;-92
2022/10/17 00:53:38;;;;;;;6.27;2.70;;;11.40;99.90;;;;;;5002297;28;20262;-92
2022/10/17 00:56:06;;;;;;;4.20;1.83;;;11.40;99.90;;;;;;4989724;28;20312;-92
2022/10/17 00:58:35;;;;;;;5.33;2.17;;;11.40;99.90;;;;;;5006070;28;20231;-95
2022/10/17 01:01:02;;;;;;;3.17;1.77;;;11.40;99.90;;;;;;4998113;28;20982;-92
2022/10/17 01:03:29;;;;;;;6.33;2.00;;;11.40;99.90;;;;;;4983236;28;20232;-92
2022/10/17 01:05:57;;;;;;;4.80;1.80;;;11.40;99.90;;;;;;4986389;28;20221;-92
2022/10/17 01:08:25;;;;;;;4.87;1.73;;;11.50;99.90;;;;;;4988712;28;20297;-93
2022/10/17 01:11:01;;;;;;;3.13;2.20;;;11.40;99.90;;;;;;4991259;28;20234;-92
2022/10/17 01:13:41;;;;;;;6.10;2.23;;;11.40;99.90;;;;;;4998833;28;20301;-94
2022/10/17 01:16:18;;;;;;;3.63;1.83;;;11.50;99.90;;;;;;4983095;28;20240;-91
2022/10/17 01:18:54;;;;;;;3.93;2.33;;;11.50;99.90;;;;;;5000378;28;20226;-92
2022/10/17 01:21:44;;;;;;;4.20;1.90;;;11.50;99.90;;;;;;4986643;28;20372;-92
2022/10/17 01:24:46;;;;;;;6.70;1.97;;;11.50;99.90;;;;;;4985318;28;20243;-92
2022/10/17 01:27:31;;;;;;;5.37;2.23;;;11.50;99.90;;;;;;4999360;28;20281;-93
2022/10/17 01:30:24;;;;;;;6.17;1.87;;;11.50;99.90;;;;;;5002093;28;20675;-92
2022/10/17 01:32:57;;;;;;;4.43;2.00;;;11.60;99.90;;;;;;4983867;28;20219;-91
2022/10/17 01:35:28;;;;;;;4.53;2.00;;;11.60;99.90;;;;;;5003343;28;20229;-91
2022/10/17 01:38:04;;;;;;;4.63;2.20;;;11.60;99.90;;;;;;4999349;28;20224;-92
2022/10/17 01:40:37;;;;;;;5.80;2.60;;;11.60;99.90;;;;;;5000613;28;20232;-92
2022/10/17 01:43:13;;;;;;;4.63;2.37;;;11.60;99.90;;;;;;4998219;28;20222;-93
2022/10/17 01:45:49;;;;;;;6.50;2.13;;;11.50;99.90;;;;;;5005647;28;20237;-92
2022/10/17 01:48:21;;;;;;;4.33;2.10;;;11.60;99.90;;;;;;5001015;28;20635;-91
2022/10/17 01:50:51;;;;;;;4.03;2.73;;;11.60;99.90;;;;;;4992242;28;20235;-92
2022/10/17 01:53:22;;;;;;;5.33;2.50;;;11.70;99.90;;;;;;4998378;28;20319;-91
2022/10/17 01:55:53;;;;;;;8.03;3.70;;;11.60;99.90;;;;;;4980453;28;20226;-92
2022/10/17 01:58:25;;;;;;;3.87;2.90;;;11.60;99.90;;;;;;4997071;28;20279;-93
2022/10/17 02:00:52;;;;;;;5.53;2.67;;;11.60;99.90;;;;;;4983337;28;20226;-93
2022/10/17 02:03:24;;;;;;;6.03;2.90;;;11.60;99.90;;;;;;4995210;28;20218;-92
2022/10/17 02:05:51;;;;;;;3.23;2.90;;;11.70;99.90;;;;;;4986061;28;20223;-93
2022/10/17 02:08:25;;;;;;;6.50;3.87;;;11.70;99.90;;;;;;5001063;28;20229;-92
2022/10/17 02:10:56;;;;;;;7.73;3.23;;;11.70;99.90;;;;;;4986463;28;20901;-92
2022/10/17 02:13:32;;;;;;;5.13;2.67;;;11.70;99.90;;;;;;4987543;28;20244;-93
2022/10/17 02:16:13;;;;;;;4.30;2.67;;;11.80;99.90;;;;;;5001008;28;20241;-93
2022/10/17 02:18:52;;;;;;;5.33;2.47;;;11.80;99.90;;;;;;4985183;28;20234;-92
2022/10/17 02:21:24;;;;;;;4.63;2.20;;;11.80;99.90;;;;;;4982130;28;20221;-91
2022/10/17 02:23:55;;;;;;;5.70;2.47;;;11.80;99.90;;;;;;4987941;28;20225;-93
2022/10/17 02:26:28;;;;;;;4.97;2.63;;;11.80;99.90;;;;;;5008176;22;20241;-91
2022/10/17 02:29:03;;;;;;;6.17;2.53;;;11.80;99.90;;;;;;4983819;28;20639;-93
2022/10/17 02:31:34;;;;;;;5.60;3.00;;;11.90;99.90;;;;;;4971424;28;20239;-91
2022/10/17 02:34:09;;;;;;;5.93;3.43;;;11.90;99.90;;;;;;5000289;28;20226;-92
2022/10/17 02:36:40;;;;;;;6.03;3.20;;;11.90;99.90;;;;;;4990236;28;20238;-91
2022/10/17 02:39:09;;;;;;;6.73;2.73;;;11.90;99.90;;;;;;4981961;28;20249;-91
2022/10/17 02:41:38;;;;;;;5.83;3.47;;;11.90;99.90;;;;;;4971225;28;20230;-91
2022/10/17 02:44:06;;;;;;;3.80;2.70;;;11.90;99.90;;;;;;4996010;28;20549;-90
2022/10/17 02:46:34;;;;;;;3.57;2.77;;;12.00;99.90;;;;;;4986543;28;20800;-92
2022/10/17 02:49:05;;;;;;;4.43;2.37;;;12.00;99.90;;;;;;4967871;28;20219;-92
2022/10/17 02:51:42;;;;;;;3.23;2.40;;;12.00;99.90;;;;;;4978434;28;20268;-92
2022/10/17 02:54:17;;;;;;;5.17;2.50;;;12.00;99.90;;;;;;4983305;28;20237;-91
2022/10/17 02:56:50;;;;;;;5.37;2.70;;;12.00;99.90;;;;;;4964717;28;20230;-91
2022/10/17 02:59:20;;;;;;;2.33;2.10;;;12.00;99.90;;;;;;4961520;28;20752;-92
2022/10/17 03:01:47;;;;;;;4.83;2.60;;;12.00;99.90;;;;;;4967211;28;20226;-92
2022/10/17 03:04:14;;;;;;;6.17;2.63;;;12.00;99.90;;;;;;4966063;28;20219;-92
2022/10/17 03:06:46;;;;;;;4.93;2.20;;;12.10;99.90;;;;;;4965233;28;20240;-91
2022/10/17 03:09:12;;;;;;;5.80;2.30;;;12.00;99.90;;;;;;4969067;28;20219;-91
2022/10/17 03:11:41;;;;;;;3.33;2.60;;;12.00;99.90;;;;;;4963758;28;20321;-92
2022/10/17 03:14:09;;;;;;;4.30;2.10;;;12.10;99.90;;;;;;4965169;28;20570;-91
2022/10/17 03:16:36;;;;;;;2.90;1.90;;;12.10;99.90;;;;;;4979949;28;20251;-92
2022/10/17 03:19:07;;;;;;;4.07;1.87;;;12.10;99.90;;;;;;4967497;28;20307;-93
2022/10/17 03:21:35;;;;;;;4.93;2.50;;;12.10;99.90;;;;;;4966274;28;20240;-91
2022/10/17 03:24:03;;;;;;;2.73;1.57;;;12.10;99.90;;;;;;4980165;28;20219;-91
2022/10/17 03:26:30;;;;;;;4.30;1.87;;;12.20;99.90;;;;;;4984999;28;20227;-91
2022/10/17 03:28:58;;;;;;;3.13;1.87;;;12.10;99.90;;;;;;4975119;28;20317;-91
2022/10/17 03:31:26;;;;;;;3.03;2.03;;;12.20;99.90;;;;;;4966401;28;20230;-91
2022/10/17 03:33:53;;;;;;;3.07;1.90;;;12.20;99.90;;;;;;4960779;28;20227;-92
2022/10/17 03:36:20;;;;;;;2.83;1.67;;;12.20;99.90;;;;;;4968137;28;20220;-91
2022/10/17 03:38:48;;;;;;;1.90;1.70;;;12.20;99.90;;;;;;4966704;28;20235;-91
2022/10/17 03:41:18;;;;;;;4.00;2.00;;;12.20;99.90;;;;;;4964560;28;20221;-91
2022/10/17 03:43:45;;;;;;;1.90;1.50;;;12.20;99.90;;;;;;4978362;28;20234;-92
2022/10/17 03:46:12;;;;;;;3.87;2.57;;;12.20;99.90;;;;;;4966591;28;20227;-91
2022/10/17 03:48:39;;;;;;;2.50;1.93;;;12.20;99.90;;;;;;4983038;28;20250;-91
2022/10/17 03:51:09;;;;;;;2.80;1.80;;;12.20;99.90;;;;;;4969576;28;20231;-91
2022/10/17 03:53:41;;;;;;;2.77;2.00;;;12.20;99.90;;;;;;4985745;28;20235;-91
2022/10/17 03:56:10;;;;;;;2.73;1.63;;;12.20;99.90;;;;;;4964327;28;20230;-91
2022/10/17 03:58:39;;;;;;;3.40;1.80;;;12.10;99.90;;;;;;4985705;28;20241;-91
2022/10/17 04:01:06;;;;;;;2.93;1.80;;;12.10;99.90;;;;;;4963146;28;20222;-92
2022/10/17 04:03:33;;;;;;;1.93;1.50;;;12.00;99.90;;;;;;4957600;28;20337;-90
2022/10/17 04:06:01;;;;;;;2.07;1.80;;;12.00;99.90;;;;;;4965955;28;20215;-92
2022/10/17 04:08:28;;;;;;;1.83;1.57;;;11.90;99.90;;;;;;4981235;28;20668;-93
2022/10/17 04:11:07;;;;;;;5.97;2.10;;;11.90;99.90;;;;;;4965039;28;20247;-92
2022/10/17 04:13:35;;;;;;;2.67;1.90;;;11.80;99.90;;;;;;4967691;28;20293;-92
2022/10/17 04:16:05;;;;;;;3.60;1.93;;;11.80;99.90;;;;;;4969713;28;22073;-93
2022/10/17 04:18:33;;;;;;;3.87;2.27;;;11.80;99.90;;;;;;4966706;28;20236;-92
2022/10/17 04:21:01;;;;;;;6.37;1.90;;;11.70;99.90;;;;;;4969433;28;20326;-93
2022/10/17 04:23:28;;;;;;;4.67;2.10;;;11.70;99.90;;;;;;4969417;28;20222;-92
2022/10/17 04:26:02;;;;;;;6.90;2.40;;;11.60;99.90;;;;;;4971055;28;20236;-93
2022/10/17 04:28:29;;;;;;;3.70;1.90;;;11.60;99.90;;;;;;4968179;28;20249;-93
2022/10/17 04:30:57;;;;;;;3.27;1.90;;;11.60;99.90;;;;;;4968613;28;20283;-94
2022/10/17 04:33:26;;;;;;;4.40;2.30;;;11.50;99.90;;;;;;4964112;28;20249;-92
2022/10/17 04:35:57;;;;;;;2.43;2.00;;;11.50;99.90;;;;;;4966465;28;20228;-92
2022/10/17 04:38:24;;;;;;;5.47;2.27;;;11.40;99.90;;;;;;4985500;28;20984;-91
2022/10/17 04:40:51;;;;;;;4.40;2.30;;;11.40;99.90;;;;;;4968946;28;20222;-91
2022/10/17 04:43:18;;;;;;;2.87;2.20;;;11.40;99.90;;;;;;5004795;23;20265;-79
2022/10/17 04:45:45;;;;;;;2.60;1.70;;;11.30;99.90;;;;;;5026476;28;20234;-80
2022/10/17 04:48:12;;;;;;;2.23;1.90;;;11.30;99.90;;;;;;5021777;28;20294;-79
2022/10/17 04:50:40;;;;;;;3.77;2.03;;;11.30;99.90;;;;;;5037643;28;20309;-80
2022/10/17 04:53:28;;;;;;;4.83;2.13;;;11.20;99.90;;;;;;5017101;28;20234;-79
2022/10/17 04:55:55;;;;;;;3.87;1.90;;;11.20;99.90;;;;;;5018519;28;20221;-80
2022/10/17 04:58:22;;;;;;;3.43;2.10;;;11.20;99.90;;;;;;5023388;28;20216;-79
2022/10/17 05:00:49;;;;;;;4.10;2.20;;;11.10;99.90;;;;;;5023115;28;20811;-79
2022/10/17 05:03:22;;;;;;;2.80;2.27;;;11.10;99.90;;;;;;5020245;28;20230;-79
2022/10/17 05:05:50;;;;;;;4.20;2.20;;;11.00;99.90;;;;;;5023002;28;20291;-79
2022/10/17 05:08:16;;;;;;;2.97;2.50;;;11.00;99.90;;;;;;5044593;28;20217;-79
2022/10/17 05:10:45;;;;;;;4.80;2.30;;;10.90;99.90;;;;;;5022533;28;20493;-79
2022/10/17 05:13:13;;;;;;;4.83;2.40;;;10.90;99.90;;;;;;5019819;28;20220;-79
2022/10/17 05:15:41;;;;;;;2.20;2.00;;;10.90;99.90;;;;;;5018792;28;20229;-79
2022/10/17 05:18:07;;;;;;;4.90;2.73;;;10.80;99.90;;;;;;5018994;28;20233;-79
2022/10/17 05:20:35;;;;;;;3.23;2.07;;;10.80;99.90;;;;;;5022320;28;20240;-80
2022/10/17 05:23:03;;;;;;;2.20;2.00;;;10.70;99.90;;;;;;5027353;28;20295;-79
2022/10/17 05:25:35;;;;;;;3.37;2.30;;;10.70;99.90;;;;;;5024535;28;20253;-78
2022/10/17 05:28:02;;;;;;;3.33;2.10;;;10.70;99.90;;;;;;5021559;28;20231;-80
2022/10/17 05:30:28;;;;;;;4.70;2.10;;;10.70;99.90;;;;;;5025048;28;20703;-80
2022/10/17 05:32:59;;;;;;;2.53;2.03;;;10.60;99.90;;;;;;5020052;28;20213;-76
2022/10/17 05:35:26;;;;;;;3.03;2.37;;;10.60;99.90;;;;;;5023175;28;20229;-78
2022/10/17 05:37:53;;;;;;;2.50;2.30;;;10.60;99.90;;;;;;5023230;28;20289;-77
2022/10/17 05:40:22;;;;;;;2.67;2.00;;;10.50;99.90;;;;;;5025523;28;20248;-78
2022/10/17 05:42:57;;;;;;;2.40;2.20;;;10.50;99.90;;;;;;5033744;28;20309;-76
2022/10/17 05:45:25;;;;;;;5.27;2.53;;;10.50;99.90;;;;;;5019851;28;20225;-77
2022/10/17 05:47:51;;;;;;;4.50;2.73;;;10.50;99.90;;;;;;5018578;28;20226;-78
2022/10/17 05:50:20;;;;;;;7.03;2.50;;;10.50;99.90;;;;;;5015964;28;20304;-77
2022/10/17 05:53:10;;;;;;;2.40;2.20;;;10.50;99.90;;;;;;5020065;28;20387;-78
2022/10/17 05:55:44;;;;;;;2.60;2.40;;;10.50;99.90;;;;;;5022054;28;20627;-77
2022/10/17 05:58:10;;;;;;;4.33;1.97;;;10.40;99.90;;;;;;5022218;28;20477;-78
2022/10/17 06:00:42;;;;;;;3.40;2.13;;;10.40;99.90;;;;;;5019677;28;20698;-78
2022/10/17 06:03:11;;;;;;;5.37;2.37;;;10.40;99.90;;;;;;5015243;28;20243;-77
2022/10/17 06:05:38;;;;;;;3.53;2.20;;;10.40;99.90;;;;;;5008584;28;20542;-78
2022/10/17 06:08:05;;;;;;;4.20;2.13;;;10.40;99.90;;;;;;5016520;28;20599;-77
2022/10/17 06:10:35;;;;;;;3.87;2.23;;;10.40;99.90;;;;;;5015430;28;20839;-78
2022/10/17 06:13:03;;;;;;;4.10;2.33;;;10.40;99.90;;;;;;5019378;28;20228;-78
2022/10/17 06:15:29;;;;;;;4.70;2.23;;;10.40;99.90;;;;;;5019126;28;20644;-79
2022/10/17 06:18:01;;;;;;;2.87;2.17;;;10.50;99.90;;;;;;5019992;28;21228;-77
2022/10/17 06:20:28;;;;;;;3.23;1.97;;;10.50;99.90;;;;;;5016316;28;20228;-77
2022/10/17 06:22:55;;;;;;;3.33;2.20;;;10.50;99.90;;;;;;5020457;28;20746;-76
2022/10/17 06:25:36;;;;;;;2.83;2.30;;;10.50;99.90;;;;;;5032320;28;20613;-77
2022/10/17 06:28:04;;;;;;;2.77;2.20;;;10.50;99.90;;;;;;5029230;28;20314;-78
2022/10/17 06:30:31;;;;;;;6.23;2.57;;;10.50;99.90;;;;;;5032563;28;20228;-79
2022/10/17 06:32:58;;;;;;;5.07;2.50;;;10.60;99.90;;;;;;5023209;28;20232;-76
2022/10/17 06:35:25;;;;;;;4.17;2.30;;;10.60;99.90;;;;;;5017420;28;20236;-78
2022/10/17 06:37:51;;;;;;;4.73;2.37;;;10.70;99.90;;;;;;5019593;28;20225;-79
2022/10/17 06:40:18;;;;;;;2.43;2.23;;;10.70;99.90;;;;;;5019026;28;20329;-77
2022/10/17 06:42:45;;;;;;;2.60;2.40;;;10.80;99.90;;;;;;5032277;28;20232;-78
2022/10/17 06:45:32;;;;;;;4.50;2.40;;;10.80;99.90;;;;;;5012857;28;20279;-79
2022/10/17 06:48:25;;;;;;;5.30;2.27;;;10.90;99.90;;;;;;5029890;28;20316;-77
2022/10/17 06:51:10;;;;;;;2.50;2.30;;;10.90;99.90;;;;;;5031042;28;20233;-77
2022/10/17 06:53:47;;;;;;;6.07;2.40;;;10.90;99.90;;;;;;5020992;28;20232;-78
2022/10/17 06:56:33;;;;;;;3.13;2.30;;;11.00;99.90;;;;;;5019193;28;20713;-77
2022/10/17 06:59:09;;;;;;;2.97;2.50;;;11.10;99.90;;;;;;5015581;28;20225;-78
2022/10/17 07:01:38;;;;;;;3.40;2.50;;;11.10;99.90;;;;;;5028901;28;20229;-79
2022/10/17 07:04:05;;;;;;;4.57;2.33;;;11.20;99.90;;;;;;5014096;28;20226;-78
2022/10/17 07:06:34;;;;;;;3.67;2.50;;;11.20;99.90;;;;;;5025438;28;20226;-78
2022/10/17 07:09:06;;;;;;;4.03;2.20;;;11.30;99.90;;;;;;5023278;28;20252;-79
2022/10/17 07:11:39;;;;;;;4.00;2.73;;;11.40;99.90;;;;;;5014107;28;20802;-76
2022/10/17 07:14:08;;;;;;;4.00;2.53;;;11.50;99.90;;;;;;4998776;28;20312;-80
2022/10/17 07:16:47;;;;;;;4.40;2.60;;;11.60;99.90;;;;;;5016452;28;20894;-79
2022/10/17 07:19:20;;;;;;;3.37;2.57;;;11.70;99.90;;;;;;5015281;28;20232;-78
2022/10/17 07:21:47;;;;;;;4.20;2.47;;;11.80;99.90;;;;;;5018910;28;20301;-78
2022/10/17 07:24:15;;;;;;;6.20;3.10;;;11.90;99.90;;;;;;5018701;28;20230;-76
2022/10/17 07:26:45;;;;;;;3.90;2.93;;;12.00;99.90;;;;;;5013023;28;20745;-76
2022/10/17 07:29:13;;;;;;;9.17;2.73;;;12.20;99.90;;;;;;5035175;28;20219;-76
2022/10/17 07:31:47;;;;;;;3.10;2.73;;;12.30;99.90;;;;;;5018813;28;20929;-76
2022/10/17 07:34:14;;;;;;;2.87;2.40;;;12.30;99.90;;;;;;5013795;28;20259;-77
2022/10/17 07:36:41;;;;;;;4.03;2.20;;;12.50;99.90;;;;;;5018366;28;20247;-77
2022/10/17 07:39:09;;;;;;;5.30;2.30;;;12.60;99.90;;;;;;5018241;28;20441;-78
2022/10/17 07:41:37;;;;;;;2.60;2.13;;;12.80;99.90;;;;;;5027295;28;20254;-77
2022/10/17 07:44:04;;;;;;;3.87;2.60;;;12.90;99.90;;;;;;5016589;28;20226;-78
2022/10/17 07:46:35;;;;;;;3.80;2.40;;;13.10;99.90;;;;;;5018305;28;20230;-78
2022/10/17 07:49:04;;;;;;;2.53;2.33;;;13.20;99.90;;;;;;5022713;28;20314;-76
2022/10/17 07:51:30;;;;;;;4.43;2.53;;;13.40;99.90;;;;;;5014985;28;20240;-79
2022/10/17 07:53:57;;;;;;;3.47;2.07;;;13.50;99.90;;;;;;5037488;28;20293;-79
2022/10/17 07:56:24;;;;;;;2.77;2.50;;;13.70;99.90;;;;;;5007230;28;20230;-78
2022/10/17 07:58:51;;;;;;;5.00;2.33;;;13.70;99.90;;;;;;5020751;28;20755;-77
2022/10/17 08:01:18;;;;;;;2.57;2.37;;;13.80;99.90;;;;;;5019862;28;20235;-78
2022/10/17 08:03:47;;;;;;;3.97;2.57;;;13.90;99.90;;;;;;5014829;28;20228;-77
2022/10/17 08:06:15;;;;;;;3.40;2.30;;;14.00;99.90;;;;;;5014365;28;20278;-77
2022/10/17 08:08:42;;;;;;;4.17;2.27;;;14.20;99.90;;;;;;5006989;28;20231;-77
2022/10/17 08:11:11;;;;;;;4.77;2.10;;;14.30;99.90;;;;;;5017121;28;20233;-79
2022/10/17 08:13:39;;;;;;;4.03;2.80;;;14.40;99.90;;;;;;5026171;28;20679;-78
2022/10/17 08:16:07;;;;;;;7.13;2.40;;;14.50;99.90;;;;;;5027384;28;20420;-77
2022/10/17 08:18:35;;;;;;;6.63;2.33;;;14.70;99.90;;;;;;5011200;28;20237;-78
2022/10/17 08:21:05;;;;;;;8.07;2.40;;;14.90;99.90;;;;;;5016834;28;20228;-77
2022/10/17 08:23:33;;;;;;;3.53;2.20;;;15.10;99.90;;;;;;5013578;28;20252;-78
2022/10/17 08:26:00;;;;;;;4.77;2.30;;;15.30;99.90;;;;;;5019672;28;20235;-79
2022/10/17 08:28:27;;;;;;;3.37;2.07;;;15.50;99.90;;;;;;5012324;28;20230;-79
2022/10/17 08:31:01;;;;;;;2.43;2.23;;;15.70;99.90;;;;;;5019873;28;20234;-77
2022/10/17 08:33:27;;;;;;;4.60;2.43;;;15.80;99.90;;;;;;5034465;28;20293;-79
2022/10/17 08:35:54;;;;;;;4.17;2.20;;;15.90;99.90;;;;;;5019366;28;20239;-77
2022/10/17 08:38:21;;;;;;;5.60;2.33;;;16.10;99.90;;;;;;5018394;28;20227;-78
2022/10/17 08:40:49;;;;;;;2.93;2.13;;;16.10;99.90;;;;;;5018470;28;20235;-78
2022/10/17 08:43:28;;;;;;;4.50;2.27;;;16.30;99.90;;;;;;5019981;28;20337;-79
2022/10/17 08:46:01;;;;;;;4.83;1.97;;;16.30;99.90;;;;;;5019076;28;20261;-79
2022/10/17 08:48:32;;;;;;;2.57;2.13;;;16.40;99.90;;;;;;5014261;28;21005;-79
2022/10/17 08:51:05;;;;;;;4.13;2.10;;;16.50;99.90;;;;;;5019971;28;20727;-77
2022/10/17 08:53:36;;;;;;;4.13;2.10;;;16.60;99.90;;;;;;5016985;28;20240;-77
2022/10/17 08:56:10;;;;;;;3.90;2.33;;;16.60;99.90;;;;;;5012007;28;20342;-78
2022/10/17 08:58:38;;;;;;;2.63;2.07;;;16.60;99.90;;;;;;5019903;28;20237;-79
2022/10/17 09:01:12;;;;;;;3.00;2.20;;;16.70;99.90;;;;;;5021047;28;20222;-77
2022/10/17 09:03:49;;;;;;;2.87;2.50;;;16.70;99.90;;;;;;5016370;28;20235;-78
2022/10/17 09:06:23;;;;;;;3.20;2.53;;;16.70;99.90;;;;;;5014154;28;20237;-78
2022/10/17 09:08:59;;;;;;;4.07;2.20;;;16.70;99.90;;;;;;5024945;28;20333;-79
2022/10/17 09:11:45;;;;;;;2.57;2.00;;;16.70;99.90;;;;;;5036587;28;20656;-79
2022/10/17 09:14:28;;;;;;;3.90;2.20;;;16.70;99.90;;;;;;5012742;28;20280;-79
2022/10/17 09:17:06;;;;;;;3.80;2.07;;;16.90;99.90;;;;;;5019751;28;20238;-77
2022/10/17 09:19:36;;;;;;;4.37;2.30;;;17.10;99.90;;;;;;5009754;28;20316;-79
2022/10/17 09:22:06;;;;;;;3.97;2.00;;;17.40;99.90;;;;;;5016783;28;20227;-79
2022/10/17 09:24:40;;;;;;;3.70;1.80;;;17.60;99.90;;;;;;5020785;28;20259;-79
2022/10/17 09:27:18;;;;;;;2.57;2.00;;;18.00;99.90;;;;;;5018159;28;20227;-77
2022/10/17 09:29:48;;;;;;;3.93;2.03;;;18.10;99.90;;;;;;5033904;28;20232;-79
2022/10/17 09:32:19;;;;;;;3.13;1.90;;;18.30;99.90;;;;;;5033349;28;20240;-79
2022/10/17 09:34:45;;;;;;;3.53;2.10;;;18.50;99.90;;;;;;5022367;28;20905;-77
2022/10/17 09:37:15;;;;;;;2.77;2.07;;;18.70;99.90;;;;;;5019085;28;20240;-78
2022/10/17 09:39:42;;;;;;;3.13;2.00;;;18.80;99.90;;;;;;5024535;28;20275;-79
2022/10/17 09:42:14;;;;;;;3.33;1.90;;;19.00;99.90;;;;;;5014351;28;20217;-80
2022/10/17 09:44:47;;;;;;;5.37;2.10;;;19.10;99.90;;;;;;5021173;28;20236;-80
2022/10/17 09:47:28;;;;;;;5.27;2.37;;;19.20;99.90;;;;;;5015980;28;20221;-80
2022/10/17 09:49:55;;;;;;;4.87;1.80;;;19.30;99.90;;;;;;5019734;28;20231;-79
2022/10/17 09:52:27;;;;;;;3.03;2.13;;;19.40;99.90;;;;;;5028158;28;20273;-78
2022/10/17 09:54:58;;;;;;;3.57;2.17;;;19.50;99.90;;;;;;5022070;28;20726;-77
2022/10/17 09:57:26;;;;;;;2.30;1.98;;;19.50;99.90;;;;;;5042494;28;20219;-78
2022/10/17 09:59:59;;;;;;;3.67;1.83;;;19.50;99.90;;;;;;5019317;28;20223;-79
2022/10/17 10:02:27;;;;;;;3.03;1.90;;;19.50;99.90;;;;;;5023950;28;20983;-78
2022/10/17 10:04:56;;;;;;;2.87;2.17;;;19.50;99.90;;;;;;5013099;28;20854;-78
2022/10/17 10:07:24;;;;;;;4.38;2.20;;;19.60;99.90;;;;;;5017998;28;23034;-80
2022/10/17 10:09:52;;;;;;;3.10;1.90;;;19.60;99.90;;;;;;5037155;28;20603;-78
2022/10/17 10:12:20;;;;;;;4.87;2.07;;;19.60;99.90;;;;;;5022551;28;20739;-81
2022/10/17 10:14:49;;;;;;;6.88;2.25;;;19.70;99.90;;;;;;5013794;28;20228;-81
2022/10/17 10:17:28;;;;;;;2.80;2.22;;;19.70;99.90;;;;;;5013043;28;20220;-82
2022/10/17 10:19:55;;;;;;;2.38;1.98;;;19.70;99.90;;;;;;5014508;28;20256;-82
2022/10/17 10:22:22;;;;;;;3.58;1.90;;;19.70;99.90;;;;;;5031710;28;20256;-82
2022/10/17 10:25:07;;;;;;;4.93;1.88;;;19.80;99.90;;;;;;5014949;28;20427;-81
2022/10/17 10:27:34;;;;;;;3.05;2.05;;;19.80;99.90;;;;;;5005279;28;20264;-80
2022/10/17 10:30:04;;;;;;;4.40;1.83;;;19.80;99.90;;;;;;5012659;28;20213;-80
2022/10/17 10:32:33;;;;;;;3.85;2.17;;;19.90;99.90;;;;;;5013704;28;20248;-80
2022/10/17 10:35:03;;;;;;;3.22;2.08;;;20.00;99.90;;;;;;5021729;28;20557;-80
2022/10/17 10:37:33;;;;;;;4.63;2.08;;;20.00;99.90;;;;;;5016925;28;20229;-81
2022/10/17 10:40:03;;;;;;;3.47;2.22;;;20.10;99.90;;;;;;5016834;28;20796;-81
2022/10/17 10:42:33;;;;;;;6.95;2.35;;;20.20;99.90;;;;;;5029431;28;20229;-81
2022/10/17 10:45:12;;;;;;;4.05;2.17;;;20.30;99.90;;;;;;5019680;28;20237;-81
2022/10/17 10:47:38;;;;;;;5.13;2.28;;;20.50;99.90;;;;;;5013828;28;20233;-80
2022/10/17 10:50:20;;;;;;;4.28;2.03;;;20.60;99.90;;;;;;5020995;28;20232;-81
2022/10/17 10:52:54;;;;;;;6.45;2.38;;;20.70;99.90;;;;;;5020519;28;20225;-80
2022/10/17 10:55:26;;;;;;;5.03;2.38;;;20.70;99.90;;;;;;5012448;28;20239;-81
2022/10/17 10:57:57;;;;;;;4.47;2.30;;;20.70;99.90;;;;;;5009568;28;20222;-80
2022/10/17 11:00:27;;;;;;;5.03;2.55;;;20.70;99.90;;;;;;5018248;28;20245;-80
2022/10/17 11:03:01;;;;;;;4.60;2.33;;;20.70;99.90;;;;;;5012667;28;21253;-81
2022/10/17 11:05:39;;;;;;;3.47;2.00;;;20.60;99.90;;;;;;5015339;28;20630;-80
2022/10/17 11:08:15;;;;;;;2.60;2.05;;;20.50;99.90;;;;;;5033228;28;20303;-81
2022/10/17 11:10:47;;;;;;;4.75;2.33;;;20.50;99.90;;;;;;5017739;28;20533;-80
2022/10/17 11:13:18;;;;;;;6.07;2.33;;;20.40;99.90;;;;;;5027060;28;20224;-80
2022/10/17 11:15:52;;;;;;;4.82;2.58;;;20.40;99.90;;;;;;5015613;28;20229;-81
2022/10/17 11:18:24;;;;;;;4.60;2.60;;;20.30;99.90;;;;;;5014175;28;20252;-81
2022/10/17 11:20:56;;;;;;;4.77;2.67;;;20.20;99.90;;;;;;5021320;28;20595;-81
2022/10/17 11:23:28;;;;;;;8.98;2.88;;;20.20;99.90;;;;;;5017265;28;20228;-80
2022/10/17 11:25:59;;;;;;;3.13;2.40;;;20.20;99.90;;;;;;5019741;28;20320;-80
2022/10/17 11:28:26;;;;;;;3.95;2.10;;;20.10;99.90;;;;;;5021342;28;20228;-81
2022/10/17 11:30:59;;;;;;;5.30;2.67;;;20.10;99.90;;;;;;5017237;28;20225;-80
2022/10/17 11:33:29;;;;;;;6.78;3.17;;;20.10;99.90;;;;;;5018034;28;20233;-81
2022/10/17 11:36:02;;;;;;;4.60;2.20;;;20.10;99.90;;;;;;5018419;28;20228;-81
2022/10/17 11:38:40;;;;;;;4.57;2.75;;;20.10;99.90;;;;;;5014136;28;20236;-80
2022/10/17 11:41:11;;;;;;;4.55;2.67;;;20.10;99.90;;;;;;5033023;28;20208;-80
2022/10/17 11:43:43;;;;;;;4.35;2.45;;;20.20;99.90;;;;;;5018035;28;20238;-81
2022/10/17 11:46:15;;;;;;;4.90;2.50;;;20.20;99.90;;;;;;5015879;28;20225;-81
2022/10/17 11:48:49;;;;;;;4.78;2.55;;;20.30;99.90;;;;;;5024724;28;20284;-81
2022/10/17 11:51:16;;;;;;;4.28;2.80;;;20.40;99.90;;;;;;5020566;28;20224;-80
2022/10/17 11:53:47;;;;;;;5.97;2.42;;;20.50;99.90;;;;;;5018825;28;20290;-80
2022/10/17 11:56:19;;;;;;;6.30;2.60;;;20.50;99.90;;;;;;5016964;28;20646;-81
2022/10/17 11:58:52;;;;;;;5.13;2.70;;;20.50;99.90;;;;;;5006301;28;20240;-80
2022/10/17 12:01:27;;;;;;;5.47;3.00;;;20.50;99.90;;;;;;5019597;28;20315;-80
2022/10/17 12:04:24;;;;;;;6.75;2.78;;;20.60;99.90;;;;;;5016180;28;20604;-80
2022/10/17 12:07:00;;;;;;;6.45;2.67;;;20.60;99.90;;;;;;5022618;28;20547;-80
2022/10/17 12:09:39;;;;;;;6.72;2.92;;;20.50;99.90;;;;;;5018895;28;20232;-81
2022/10/17 12:12:06;;;;;;;6.90;3.00;;;20.50;99.90;;;;;;5023224;28;20315;-81
2022/10/17 12:14:43;;;;;;;6.28;2.92;;;20.50;99.90;;;;;;5021438;28;20228;-80
2022/10/17 12:17:34;;;;;;;9.18;3.35;;;20.40;99.90;;;;;;5018978;28;20343;-80
2022/10/17 12:20:27;;;;;;;7.35;3.45;;;20.40;99.90;;;;;;5023237;28;20855;-81
2022/10/17 12:22:56;;;;;;;7.45;3.38;;;20.40;99.90;;;;;;5019983;28;20233;-81
2022/10/17 12:25:28;;;;;;;4.07;3.60;;;20.40;99.90;;;;;;5019342;28;20225;-80
2022/10/17 12:28:10;;;;;;;5.43;3.72;;;20.40;99.90;;;;;;5011681;28;20311;-80
2022/10/17 12:30:37;;;;;;;5.68;3.58;;;20.30;99.90;;;;;;5016356;28;20292;-80
2022/10/17 12:33:20;;;;;;;4.88;3.58;;;20.30;99.90;;;;;;5020853;28;20224;-80
2022/10/17 12:35:48;;;;;;;5.00;3.23;;;20.20;99.90;;;;;;5015333;28;20541;-80
2022/10/17 12:38:21;;;;;;;4.60;2.87;;;20.20;99.90;;;;;;5013976;28;20930;-80
2022/10/17 12:40:52;;;;;;;3.80;3.10;;;20.10;99.90;;;;;;5017867;28;20227;-81
2022/10/17 12:43:56;;;;;;;5.30;3.15;;;20.00;99.90;;;;;;5017187;28;20853;-80
2022/10/17 12:46:55;;;;;;;6.00;2.97;;;19.90;99.90;;;;;;5020093;28;20235;-80
2022/10/17 12:49:39;;;;;;;5.78;3.17;;;19.90;99.90;;;;;;5015214;28;20222;-82
2022/10/17 12:52:45;;;;;;;8.23;3.30;;;19.90;99.90;;;;;;5017742;28;20233;-80
2022/10/17 12:55:15;;;;;;;3.33;2.83;;;19.90;99.90;;;;;;5021654;28;20243;-82
2022/10/17 12:57:52;;;;;;;4.15;2.95;;;19.90;99.90;;;;;;5043581;28;20223;-81
2022/10/17 13:00:23;;;;;;;6.20;2.85;;;19.90;99.90;;;;;;5026564;28;20225;-80
2022/10/17 13:02:53;;;;;;;10.07;3.20;;;19.90;99.90;;;;;;5026904;28;20709;-84
2022/10/17 13:05:28;;;;;;;6.60;3.70;;;19.90;99.90;;;;;;5024202;28;20453;-86
2022/10/17 13:07:56;;;;;;;4.97;3.20;;;19.60;99.90;;;;;;5017302;28;20719;-83
2022/10/17 13:10:26;;;;;;;3.80;2.77;;;19.70;99.90;;;;;;5036279;28;20883;-83